Time;durP1;ratioP1;P1;durP2;ratioP2;P2;SDS_P1;SDS_P2;PMS_P1;PMS_P2;Temp;Humidity;BMP_temperature;BMP_pressure;BME280_temperature;BME280_humidity;BME280_pressure;Samples;Min_cycle;Max_cycle;Signal;HPM_P1;HPM_P2
2023/10/06 00:01:33;;;;;;;10.20;7.17;;;;;;;10.92;96.07;101936.31;5035547;28;20316;-72
2023/10/06 00:04:06;;;;;;;14.57;8.60;;;;;;;10.91;96.50;101935.50;5038654;28;20313;-70
2023/10/06 00:06:37;;;;;;;10.53;8.20;;;;;;;10.90;96.14;101944.50;5037863;28;20271;-71
2023/10/06 00:09:06;;;;;;;12.90;7.80;;;;;;;10.87;96.50;101945.09;5039800;28;20966;-73
2023/10/06 00:11:32;;;;;;;10.50;7.17;;;;;;;10.84;96.46;101944.91;5037882;28;20221;-73
2023/10/06 00:14:01;;;;;;;12.53;8.13;;;;;;;10.82;96.54;101933.84;5036108;28;20241;-72
2023/10/06 00:16:33;;;;;;;8.90;7.17;;;;;;;10.79;95.71;101937.06;5037697;28;20686;-70
2023/10/06 00:19:12;;;;;;;10.57;7.40;;;;;;;10.76;96.21;101933.16;5054968;28;20214;-72
2023/10/06 00:21:43;;;;;;;11.73;6.97;;;;;;;10.74;96.67;101939.81;5039137;28;20480;-73
2023/10/06 00:24:10;;;;;;;10.73;7.00;;;;;;;10.70;96.35;101934.31;5039733;28;20941;-72
2023/10/06 00:26:37;;;;;;;9.77;7.77;;;;;;;10.67;96.45;101926.97;5037278;28;20573;-74
2023/10/06 00:29:09;;;;;;;8.80;6.83;;;;;;;10.67;96.71;101931.50;5035067;28;20226;-71
2023/10/06 00:31:36;;;;;;;10.60;7.57;;;;;;;10.66;96.47;101933.34;5034781;28;20265;-73
2023/10/06 00:34:04;;;;;;;11.63;7.00;;;;;;;10.63;95.97;101933.94;5034646;28;20215;-73
2023/10/06 00:36:30;;;;;;;10.43;7.17;;;;;;;10.62;95.58;101932.34;5055169;28;20214;-74
2023/10/06 00:38:57;;;;;;;10.90;7.67;;;;;;;10.60;96.67;101933.72;5036355;28;20206;-73
2023/10/06 00:41:23;;;;;;;8.67;6.50;;;;;;;10.57;96.79;101936.97;5034136;28;20750;-72
2023/10/06 00:43:50;;;;;;;8.30;6.53;;;;;;;10.52;96.40;101927.28;5033057;28;20268;-71
2023/10/06 00:46:19;;;;;;;10.90;7.30;;;;;;;10.51;96.04;101930.97;5035302;28;20213;-72
2023/10/06 00:48:52;;;;;;;9.33;7.13;;;;;;;10.47;95.93;101924.75;5035393;28;20203;-72
2023/10/06 00:51:22;;;;;;;9.93;7.00;;;;;;;10.45;96.17;101918.19;5037398;28;20273;-72
2023/10/06 00:53:51;;;;;;;12.63;8.17;;;;;;;10.43;95.97;101931.66;5039109;28;20273;-73
2023/10/06 00:56:18;;;;;;;11.07;7.57;;;;;;;10.39;95.94;101917.47;5037220;28;21206;-73
2023/10/06 00:58:45;;;;;;;10.40;8.07;;;;;;;10.39;95.53;101932.53;5036099;28;20221;-73
2023/10/06 01:01:12;;;;;;;9.30;6.87;;;;;;;10.39;96.08;101925.41;5052772;28;20208;-73
2023/10/06 01:03:42;;;;;;;8.80;7.00;;;;;;;10.37;96.68;101932.84;5036984;28;20817;-72
2023/10/06 01:06:12;;;;;;;10.00;7.70;;;;;;;10.35;96.27;101934.19;5036914;28;20204;-72
2023/10/06 01:08:45;;;;;;;11.90;7.30;;;;;;;10.33;96.54;101934.47;5036254;28;20228;-73
2023/10/06 01:11:17;;;;;;;9.43;7.57;;;;;;;10.32;96.54;101927.66;5038435;28;20221;-73
2023/10/06 01:13:53;;;;;;;9.10;6.47;;;;;;;10.31;96.70;101925.28;5036127;28;20712;-74
2023/10/06 01:16:24;;;;;;;11.80;7.83;;;;;;;10.29;96.50;101933.50;5036865;28;20199;-73
2023/10/06 01:18:52;;;;;;;8.70;7.20;;;;;;;10.29;96.52;101922.13;5036543;28;20284;-73
2023/10/06 01:21:28;;;;;;;10.20;7.03;;;;;;;10.26;96.72;101926.13;5033834;28;20201;-72
2023/10/06 01:23:58;;;;;;;13.03;8.07;;;;;;;10.26;96.77;101928.00;5035995;28;20304;-72
2023/10/06 01:26:24;;;;;;;11.13;7.60;;;;;;;10.27;97.63;101929.56;5037356;28;20243;-73
2023/10/06 01:28:51;;;;;;;9.33;6.53;;;;;;;10.25;96.95;101931.72;5033230;28;20585;-72
2023/10/06 01:31:19;;;;;;;11.77;7.10;;;;;;;10.25;96.64;101926.44;5035402;28;20242;-73
2023/10/06 01:33:45;;;;;;;10.93;7.63;;;;;;;10.24;96.98;101928.28;5033513;28;20704;-72
2023/10/06 01:36:14;;;;;;;10.27;7.53;;;;;;;10.25;97.40;101924.56;5036438;28;20211;-72
2023/10/06 01:38:43;;;;;;;9.57;6.83;;;;;;;10.27;97.48;101933.00;5051868;28;20209;-73
2023/10/06 01:41:11;;;;;;;10.80;8.67;;;;;;;10.27;97.30;101926.94;5035410;28;20212;-73
2023/10/06 01:43:39;;;;;;;12.20;8.50;;;;;;;10.29;97.38;101924.78;5034022;28;20232;-72
2023/10/06 01:46:07;;;;;;;11.13;8.00;;;;;;;10.30;97.31;101923.72;5038021;28;20212;-73
2023/10/06 01:48:36;;;;;;;10.40;7.30;;;;;;;10.29;98.07;101930.84;5038520;28;20591;-73
2023/10/06 01:51:08;;;;;;;12.73;8.23;;;;;;;10.30;98.00;101931.66;5036421;28;20220;-71
2023/10/06 01:53:35;;;;;;;10.67;8.23;;;;;;;10.33;97.78;101925.75;5035873;28;20686;-73
2023/10/06 01:56:06;;;;;;;14.20;7.87;;;;;;;10.37;97.98;101921.47;5052647;28;20254;-73
2023/10/06 01:58:34;;;;;;;10.53;7.20;;;;;;;10.41;97.72;101925.88;5039032;28;20205;-71
2023/10/06 02:01:01;;;;;;;12.33;8.63;;;;;;;10.48;97.37;101921.00;5038735;28;20203;-74
2023/10/06 02:03:27;;;;;;;13.50;8.53;;;;;;;10.54;98.06;101922.47;5036439;28;20220;-72
2023/10/06 02:05:59;;;;;;;10.40;7.97;;;;;;;10.60;98.04;101923.16;5036900;28;20295;-72
2023/10/06 02:08:27;;;;;;;12.40;8.60;;;;;;;10.68;97.77;101919.84;5037442;28;20656;-72
2023/10/06 02:10:55;;;;;;;11.77;8.73;;;;;;;10.75;98.11;101928.94;5037062;28;20223;-73
2023/10/06 02:13:21;;;;;;;12.43;9.30;;;;;;;10.81;97.47;101929.66;5035271;28;20246;-73
2023/10/06 02:15:58;;;;;;;13.83;8.73;;;;;;;10.88;97.80;101920.22;5034673;28;20209;-72
2023/10/06 02:18:35;;;;;;;13.00;8.47;;;;;;;10.94;98.04;101915.63;5052271;28;20214;-71
2023/10/06 02:21:06;;;;;;;11.33;9.30;;;;;;;10.99;97.94;101913.69;5034355;28;20221;-72
2023/10/06 02:23:37;;;;;;;17.30;9.77;;;;;;;11.06;98.40;101907.97;5034048;28;20226;-73
2023/10/06 02:26:06;;;;;;;17.83;10.40;;;;;;;11.13;98.21;101913.66;5033261;28;20654;-72
2023/10/06 02:28:33;;;;;;;14.80;10.63;;;;;;;11.18;97.77;101909.03;5034236;28;20234;-73
2023/10/06 02:31:05;;;;;;;15.87;9.87;;;;;;;11.25;98.00;101908.63;5032374;28;20875;-73
2023/10/06 02:33:36;;;;;;;15.53;10.03;;;;;;;11.30;98.30;101901.38;5030722;28;20223;-73
2023/10/06 02:36:13;;;;;;;16.30;10.40;;;;;;;11.36;98.18;101902.03;5032895;28;20567;-73
2023/10/06 02:38:46;;;;;;;13.70;9.47;;;;;;;11.41;97.84;101899.28;5047323;28;20215;-72
2023/10/06 02:41:16;;;;;;;15.20;10.30;;;;;;;11.47;97.83;101908.66;5034670;28;20472;-71
2023/10/06 02:43:42;;;;;;;14.07;9.83;;;;;;;11.53;98.13;101912.75;5028933;28;20858;-72
2023/10/06 02:46:11;;;;;;;14.73;9.50;;;;;;;11.57;97.95;101911.09;5047712;28;20216;-73
2023/10/06 02:48:48;;;;;;;14.37;9.57;;;;;;;11.61;98.17;101917.38;5030384;28;20215;-73
2023/10/06 02:51:18;;;;;;;11.50;8.73;;;;;;;11.67;97.95;101916.19;5049137;28;20227;-73
2023/10/06 02:53:50;;;;;;;21.50;11.50;;;;;;;11.71;97.96;101910.00;5030592;28;20231;-71
2023/10/06 02:56:21;;;;;;;14.10;10.03;;;;;;;11.77;97.40;101915.94;5029824;28;20213;-72
2023/10/06 02:58:50;;;;;;;16.13;10.30;;;;;;;11.79;97.49;101909.28;5048811;28;20308;-73
2023/10/06 03:01:18;;;;;;;15.60;10.00;;;;;;;11.84;97.29;101918.94;5030138;28;20633;-72
2023/10/06 03:03:45;;;;;;;12.60;8.20;;;;;;;11.87;97.92;101913.06;5030099;28;20211;-71
2023/10/06 03:06:17;;;;;;;14.17;9.97;;;;;;;11.90;97.75;101918.53;5031309;28;20916;-72
2023/10/06 03:08:44;;;;;;;14.30;9.53;;;;;;;11.92;97.58;101926.97;5028310;28;20217;-75
2023/10/06 03:11:12;;;;;;;13.87;10.03;;;;;;;11.93;97.13;101927.72;5031734;28;20381;-74
2023/10/06 03:13:43;;;;;;;12.00;9.50;;;;;;;11.94;96.94;101931.94;5029061;28;20300;-72
2023/10/06 03:16:11;;;;;;;15.60;11.37;;;;;;;11.95;97.32;101936.94;5030063;28;20205;-72
2023/10/06 03:18:39;;;;;;;13.33;8.83;;;;;;;11.98;97.20;101939.00;5029554;28;20300;-73
2023/10/06 03:21:15;;;;;;;16.60;10.07;;;;;;;12.02;97.31;101939.16;5029858;28;20554;-70
2023/10/06 03:23:44;;;;;;;15.10;8.27;;;;;;;12.04;97.15;101940.44;5030796;28;20229;-73
2023/10/06 03:26:19;;;;;;;10.50;8.33;;;;;;;12.09;97.29;101942.16;5029120;28;20205;-72
2023/10/06 03:28:49;;;;;;;12.60;9.50;;;;;;;12.12;97.48;101949.50;5029433;28;20960;-72
2023/10/06 03:31:23;;;;;;;13.20;9.33;;;;;;;12.14;97.17;101945.47;5028239;28;20380;-73
2023/10/06 03:33:54;;;;;;;14.57;8.13;;;;;;;12.17;97.45;101947.50;5027015;28;20566;-73
2023/10/06 03:36:27;;;;;;;14.37;9.77;;;;;;;12.20;97.20;101940.81;5028983;28;20210;-72
2023/10/06 03:38:55;;;;;;;13.93;9.30;;;;;;;12.24;97.13;101936.50;5029571;28;20539;-72
2023/10/06 03:41:26;;;;;;;11.13;8.60;;;;;;;12.26;97.55;101934.34;5027780;28;20237;-71
2023/10/06 03:43:54;;;;;;;11.80;8.57;;;;;;;12.29;97.06;101936.38;5028024;28;20574;-72
2023/10/06 03:46:24;;;;;;;13.47;9.57;;;;;;;12.31;97.01;101926.28;5028706;28;20598;-73
2023/10/06 03:48:51;;;;;;;12.40;9.33;;;;;;;12.33;97.33;101939.97;5024826;28;20206;-71
2023/10/06 03:51:20;;;;;;;12.03;9.20;;;;;;;12.35;97.59;101941.25;5028518;28;20217;-73
2023/10/06 03:53:48;;;;;;;14.00;10.20;;;;;;;12.37;97.11;101933.75;5029830;28;20226;-73
2023/10/06 03:56:16;;;;;;;11.37;8.43;;;;;;;12.40;97.29;101930.50;5027513;28;20210;-72
2023/10/06 03:58:42;;;;;;;14.93;9.60;;;;;;;12.43;97.05;101940.50;5029377;28;20216;-73
2023/10/06 04:01:11;;;;;;;10.87;8.10;;;;;;;12.44;96.83;101933.34;5023229;28;20905;-71
2023/10/06 04:03:38;;;;;;;12.30;9.47;;;;;;;12.46;96.94;101925.84;5028569;28;20232;-73
2023/10/06 04:06:05;;;;;;;13.60;9.37;;;;;;;12.47;96.47;101922.13;5027662;28;20763;-73
2023/10/06 04:08:33;;;;;;;12.97;8.70;;;;;;;12.48;96.50;101931.66;5024879;28;22050;-74
2023/10/06 04:10:59;;;;;;;12.70;9.00;;;;;;;12.47;96.65;101914.19;5027484;28;20249;-72
2023/10/06 04:13:26;;;;;;;10.73;8.63;;;;;;;12.47;96.36;101922.91;5025999;28;20236;-74
2023/10/06 04:15:54;;;;;;;10.47;8.33;;;;;;;12.46;96.42;101923.19;5029252;28;20712;-73
2023/10/06 04:18:22;;;;;;;11.63;9.00;;;;;;;12.45;96.11;101925.09;5026216;28;20285;-74
2023/10/06 04:20:50;;;;;;;10.00;8.27;;;;;;;12.46;96.09;101931.94;5028381;28;20202;-73
2023/10/06 04:23:17;;;;;;;15.27;9.17;;;;;;;12.47;96.24;101930.84;5042627;28;20226;-73
2023/10/06 04:25:46;;;;;;;10.87;8.00;;;;;;;12.46;96.19;101931.16;5025314;28;20211;-73
2023/10/06 04:28:14;;;;;;;11.47;8.47;;;;;;;12.46;96.06;101934.59;5026612;28;20335;-71
2023/10/06 04:30:43;;;;;;;9.57;7.37;;;;;;;12.46;95.79;101934.59;5029453;28;20655;-72
2023/10/06 04:33:12;;;;;;;13.13;8.90;;;;;;;12.45;96.20;101933.03;5047347;28;20256;-70
2023/10/06 04:35:40;;;;;;;9.83;8.10;;;;;;;12.41;96.05;101936.56;5028932;28;20209;-73
2023/10/06 04:38:10;;;;;;;12.17;8.10;;;;;;;12.39;95.90;101936.13;5023737;28;20217;-73
2023/10/06 04:40:36;;;;;;;8.97;7.20;;;;;;;12.36;95.56;101937.50;5030844;28;20194;-72
2023/10/06 04:43:04;;;;;;;10.23;8.07;;;;;;;12.35;95.47;101943.88;5029113;28;20234;-71
2023/10/06 04:45:31;;;;;;;10.47;8.37;;;;;;;12.32;95.51;101936.53;5030055;28;20711;-74
2023/10/06 04:48:00;;;;;;;10.77;7.63;;;;;;;12.32;95.88;101946.38;5025988;28;20213;-72
2023/10/06 04:50:27;;;;;;;11.80;7.70;;;;;;;12.32;95.48;101938.44;5026534;28;20221;-73
2023/10/06 04:52:54;;;;;;;12.00;7.17;;;;;;;12.31;95.44;101940.28;5028752;28;20628;-73
2023/10/06 04:55:21;;;;;;;11.53;7.50;;;;;;;12.29;95.48;101937.16;5030576;28;20260;-71
2023/10/06 04:57:47;;;;;;;10.20;6.63;;;;;;;12.28;95.83;101935.59;5030184;28;20200;-71
2023/10/06 05:00:19;;;;;;;11.17;7.27;;;;;;;12.26;95.32;101943.06;5026156;28;20205;-73
2023/10/06 05:02:47;;;;;;;9.83;6.70;;;;;;;12.25;95.57;101944.16;5023912;28;20228;-73
2023/10/06 05:05:14;;;;;;;11.23;6.67;;;;;;;12.24;95.45;101944.44;5026341;28;21327;-71
2023/10/06 05:07:40;;;;;;;11.97;6.80;;;;;;;12.22;95.74;101938.69;5028800;28;20216;-73
2023/10/06 05:10:10;;;;;;;8.70;6.53;;;;;;;12.20;95.31;101944.28;5028002;28;20220;-72
2023/10/06 05:12:38;;;;;;;11.50;7.37;;;;;;;12.19;95.48;101950.66;5028367;28;20237;-73
2023/10/06 05:15:08;;;;;;;9.60;7.00;;;;;;;12.19;95.47;101941.91;5029293;28;20200;-73
2023/10/06 05:17:36;;;;;;;9.47;6.87;;;;;;;12.16;95.30;101943.31;5029950;28;20280;-71
2023/10/06 05:20:03;;;;;;;8.73;6.17;;;;;;;12.15;95.57;101938.31;5028321;28;20213;-72
2023/10/06 05:22:29;;;;;;;10.43;6.80;;;;;;;12.15;95.58;101938.31;5029060;28;20943;-73
2023/10/06 05:24:56;;;;;;;9.17;6.53;;;;;;;12.15;95.76;101941.75;5052053;28;20222;-73
2023/10/06 05:27:22;;;;;;;11.13;6.27;;;;;;;12.15;95.73;101939.09;5035858;28;20917;-74
2023/10/06 05:29:50;;;;;;;12.27;6.53;;;;;;;12.15;96.00;101939.09;5036536;28;20204;-73
2023/10/06 05:32:17;;;;;;;11.57;6.27;;;;;;;12.17;95.85;101938.81;5033975;28;20240;-73
2023/10/06 05:34:44;;;;;;;15.33;7.57;;;;;;;12.19;96.48;101945.34;5039959;28;20204;-73
2023/10/06 05:37:12;;;;;;;10.00;5.93;;;;;;;12.22;96.22;101951.91;5037555;28;20211;-73
2023/10/06 05:39:40;;;;;;;9.80;6.20;;;;;;;12.24;96.05;101941.78;5038107;28;20678;-72
2023/10/06 05:42:08;;;;;;;10.93;6.17;;;;;;;12.27;96.57;101943.84;5036386;28;20561;-72
2023/10/06 05:44:36;;;;;;;10.20;6.77;;;;;;;12.30;96.50;101951.16;5040861;28;20227;-72
2023/10/06 05:47:02;;;;;;;13.43;6.77;;;;;;;12.33;96.65;101951.38;5041728;28;20475;-71
2023/10/06 05:49:32;;;;;;;8.73;6.50;;;;;;;12.36;96.72;101945.44;5038407;28;20966;-74
2023/10/06 05:52:00;;;;;;;9.50;6.70;;;;;;;12.40;96.63;101945.63;5036786;28;20238;-71
2023/10/06 05:54:29;;;;;;;10.23;6.97;;;;;;;12.43;96.87;101937.84;5037153;28;20211;-71
2023/10/06 05:56:56;;;;;;;10.17;6.27;;;;;;;12.47;96.66;101943.34;5039810;28;20212;-73
2023/10/06 05:59:22;;;;;;;12.63;7.33;;;;;;;12.49;96.57;101935.84;5037857;28;20232;-74
2023/10/06 06:01:56;;;;;;;9.07;7.40;;;;;;;12.52;96.40;101935.25;5036186;28;20265;-71
2023/10/06 06:04:27;;;;;;;10.67;6.87;;;;;;;12.54;96.28;101948.97;5036697;28;20804;-72
2023/10/06 06:06:56;;;;;;;10.53;7.13;;;;;;;12.55;95.82;101943.38;5039156;28;20210;-73
2023/10/06 06:09:24;;;;;;;10.77;7.27;;;;;;;12.59;95.84;101946.19;5035336;28;20201;-72
2023/10/06 06:11:51;;;;;;;8.70;6.27;;;;;;;12.60;96.12;101947.75;5033834;28;21226;-71
2023/10/06 06:14:20;;;;;;;11.30;6.87;;;;;;;12.61;95.66;101951.94;5037733;28;20285;-74
2023/10/06 06:16:47;;;;;;;11.00;7.20;;;;;;;12.61;95.65;101957.25;5039345;28;20293;-72
2023/10/06 06:19:13;;;;;;;9.87;7.37;;;;;;;12.61;95.56;101955.41;5037830;28;20205;-73
2023/10/06 06:21:39;;;;;;;10.67;7.20;;;;;;;12.59;95.47;101952.28;5038821;28;20282;-74
2023/10/06 06:24:07;;;;;;;9.80;6.90;;;;;;;12.60;95.25;101953.03;5036935;28;20228;-73
2023/10/06 06:26:36;;;;;;;8.40;5.97;;;;;;;12.59;95.13;101957.56;5039624;28;20212;-71
2023/10/06 06:29:03;;;;;;;11.80;6.50;;;;;;;12.57;95.16;101962.38;5036215;28;20515;-73
2023/10/06 06:31:32;;;;;;;9.87;6.47;;;;;;;12.57;95.21;101958.97;5036452;28;20754;-72
2023/10/06 06:33:59;;;;;;;13.37;6.60;;;;;;;12.56;95.24;101962.69;5037834;28;20217;-71
2023/10/06 06:36:26;;;;;;;10.13;6.23;;;;;;;12.54;94.81;101970.97;5037722;28;20213;-74
2023/10/06 06:38:53;;;;;;;10.17;6.60;;;;;;;12.52;94.86;101957.22;5036282;28;21173;-73
2023/10/06 06:41:21;;;;;;;9.77;7.23;;;;;;;12.53;95.08;101963.31;5040370;28;20209;-74
2023/10/06 06:43:49;;;;;;;15.77;6.30;;;;;;;12.54;95.16;101964.88;5040152;28;20730;-72
2023/10/06 06:46:16;;;;;;;8.97;6.57;;;;;;;12.56;95.69;101968.78;5038326;28;20260;-72
2023/10/06 06:48:44;;;;;;;14.40;7.93;;;;;;;12.62;95.90;101966.78;5039143;28;20206;-71
2023/10/06 06:51:11;;;;;;;9.80;6.83;;;;;;;12.68;96.41;101965.56;5037104;28;20223;-72
2023/10/06 06:53:39;;;;;;;10.00;7.10;;;;;;;12.75;96.15;101965.91;5037338;28;20237;-73
2023/10/06 06:56:05;;;;;;;13.37;7.60;;;;;;;12.81;96.46;101962.81;5052020;28;20210;-74
2023/10/06 06:58:32;;;;;;;9.80;6.30;;;;;;;12.85;96.12;101961.13;5034938;28;20198;-71
2023/10/06 07:01:04;;;;;;;11.07;7.23;;;;;;;12.90;95.93;101957.53;5035270;28;20350;-73
2023/10/06 07:03:31;;;;;;;15.00;7.67;;;;;;;12.92;95.62;101960.66;5035284;28;20229;-72
2023/10/06 07:05:57;;;;;;;11.70;7.47;;;;;;;12.95;95.45;101958.16;5036535;28;20605;-74
2023/10/06 07:08:24;;;;;;;12.50;7.63;;;;;;;12.96;95.13;101954.47;5034068;28;20218;-72
2023/10/06 07:10:53;;;;;;;12.03;7.90;;;;;;;12.98;95.05;101956.78;5032661;28;20264;-74
2023/10/06 07:13:22;;;;;;;13.10;7.47;;;;;;;13.01;94.85;101958.84;5035449;28;20243;-73
2023/10/06 07:15:49;;;;;;;10.17;6.23;;;;;;;13.02;95.05;101958.53;5036638;28;20234;-71
2023/10/06 07:18:19;;;;;;;10.17;6.40;;;;;;;13.05;94.99;101957.91;5035331;28;20548;-74
2023/10/06 07:20:45;;;;;;;12.27;6.70;;;;;;;13.07;94.87;101953.09;5034812;28;20197;-74
2023/10/06 07:23:12;;;;;;;10.47;6.50;;;;;;;13.12;94.89;101963.56;5033316;28;20225;-71
2023/10/06 07:25:39;;;;;;;10.80;7.00;;;;;;;13.14;94.78;101958.72;5032020;28;20214;-73
2023/10/06 07:28:07;;;;;;;12.87;7.17;;;;;;;13.19;95.12;101955.91;5032049;28;20578;-73
2023/10/06 07:30:35;;;;;;;12.77;6.73;;;;;;;13.23;94.43;101959.53;5028993;28;20289;-72
2023/10/06 07:33:03;;;;;;;15.23;7.03;;;;;;;13.28;94.70;101940.81;5029958;28;20654;-71
2023/10/06 07:35:37;;;;;;;12.60;6.97;;;;;;;13.33;94.61;101937.22;5028611;28;21547;-73
2023/10/06 07:38:04;;;;;;;11.43;7.20;;;;;;;13.37;94.15;101943.47;5031088;28;20234;-72
2023/10/06 07:40:31;;;;;;;12.93;6.40;;;;;;;13.41;94.02;101955.03;5029380;28;20279;-74
2023/10/06 07:42:57;;;;;;;12.23;7.27;;;;;;;13.46;94.26;101960.19;5032794;28;20597;-73
2023/10/06 07:45:26;;;;;;;11.90;6.90;;;;;;;13.52;94.02;101962.38;5028144;28;20205;-74
2023/10/06 07:47:54;;;;;;;16.10;7.40;;;;;;;13.58;93.70;101968.31;5029491;28;20267;-72
2023/10/06 07:50:20;;;;;;;11.77;7.23;;;;;;;13.62;94.11;101955.97;5027962;28;20223;-75
2023/10/06 07:52:48;;;;;;;10.47;7.30;;;;;;;13.69;93.34;101946.47;5027606;28;20226;-72
2023/10/06 07:55:16;;;;;;;17.30;7.80;;;;;;;13.76;93.28;101951.31;5027726;28;21340;-73
2023/10/06 07:57:46;;;;;;;13.33;7.77;;;;;;;13.84;93.68;101955.81;5030223;28;20198;-72
2023/10/06 08:00:18;;;;;;;12.57;8.40;;;;;;;13.94;93.67;101950.97;5031045;28;20198;-75
2023/10/06 08:02:45;;;;;;;13.23;7.97;;;;;;;14.10;93.25;101960.00;5030751;28;20222;-74
2023/10/06 08:05:17;;;;;;;17.27;9.27;;;;;;;14.27;91.28;101965.31;5031020;28;20636;-72
2023/10/06 08:07:44;;;;;;;16.00;9.37;;;;;;;14.40;91.16;101959.03;5032240;28;20242;-72
2023/10/06 08:10:14;;;;;;;16.07;9.80;;;;;;;14.53;91.54;101954.59;5031608;28;21013;-73
2023/10/06 08:12:43;;;;;;;16.53;9.60;;;;;;;14.66;91.08;101956.28;5032406;28;20236;-72
2023/10/06 08:15:10;;;;;;;20.67;10.37;;;;;;;14.78;90.41;101948.41;5030201;28;20208;-74
2023/10/06 08:17:37;;;;;;;17.93;9.17;;;;;;;14.90;89.73;101948.53;5030383;28;20210;-72
2023/10/06 08:20:05;;;;;;;13.10;9.50;;;;;;;15.02;89.48;101945.94;5032896;28;20210;-73
2023/10/06 08:22:33;;;;;;;15.30;9.67;;;;;;;15.11;87.22;101930.72;5031548;28;20220;-74
2023/10/06 08:25:00;;;;;;;14.20;8.90;;;;;;;15.21;87.68;101930.34;5027005;28;20784;-73
2023/10/06 08:27:28;;;;;;;11.17;8.23;;;;;;;15.30;87.72;101925.72;5025392;28;20728;-73
2023/10/06 08:29:54;;;;;;;10.13;6.20;;;;;;;15.39;86.80;101924.59;5028187;28;20208;-75
2023/10/06 08:32:21;;;;;;;10.23;6.00;;;;;;;15.49;86.90;101926.09;5027787;28;20227;-71
2023/10/06 08:34:47;;;;;;;8.10;5.67;;;;;;;15.58;87.23;101921.47;5028079;28;20310;-73
2023/10/06 08:37:14;;;;;;;6.97;4.57;;;;;;;15.67;85.15;101930.16;5028089;28;21087;-74
2023/10/06 08:39:40;;;;;;;5.33;3.50;;;;;;;15.73;87.49;101934.19;5028545;28;20231;-74
2023/10/06 08:42:10;;;;;;;5.23;3.00;;;;;;;15.75;81.65;101932.75;5026429;28;20620;-72
2023/10/06 08:44:39;;;;;;;7.30;3.43;;;;;;;15.81;84.81;101942.09;5028971;28;21463;-72
2023/10/06 08:47:09;;;;;;;5.40;3.00;;;;;;;15.87;83.66;101932.00;5026487;28;20201;-73
2023/10/06 08:49:37;;;;;;;4.13;3.03;;;;;;;15.94;83.29;101922.38;5028548;28;20218;-74
2023/10/06 08:52:04;;;;;;;4.93;2.97;;;;;;;16.02;83.69;101918.06;5027041;28;20233;-73
2023/10/06 08:54:32;;;;;;;4.83;2.93;;;;;;;16.08;82.45;101914.88;5027077;28;20210;-72
2023/10/06 08:56:58;;;;;;;4.50;3.20;;;;;;;16.13;82.37;101909.34;5027864;28;20253;-73
2023/10/06 08:59:25;;;;;;;4.70;3.20;;;;;;;16.18;83.38;101905.69;5026083;28;20214;-72
2023/10/06 09:01:52;;;;;;;5.03;2.80;;;;;;;16.20;81.57;101909.56;5026166;28;20226;-73
2023/10/06 09:04:21;;;;;;;3.90;3.07;;;;;;;16.25;81.93;101903.25;5028671;28;20210;-73
2023/10/06 09:07:12;;;;;;;4.00;2.67;;;;;;;16.28;80.40;101891.91;5028453;28;20215;-73
2023/10/06 09:09:40;;;;;;;4.63;2.90;;;;;;;16.34;80.34;101883.38;5027485;28;20652;-73
2023/10/06 09:12:07;;;;;;;5.63;2.87;;;;;;;16.40;79.28;101879.41;5041428;28;20676;-73
2023/10/06 09:14:34;;;;;;;3.67;2.77;;;;;;;16.48;80.32;101865.22;5028413;28;20621;-72
2023/10/06 09:17:03;;;;;;;4.73;2.90;;;;;;;16.58;81.88;101871.97;5029354;28;20206;-74
2023/10/06 09:19:47;;;;;;;5.90;3.00;;;;;;;16.70;79.43;101871.97;5026444;28;20203;-74
2023/10/06 09:22:15;;;;;;;4.13;2.93;;;;;;;16.81;80.43;101878.41;5027454;28;20225;-72
2023/10/06 09:24:41;;;;;;;7.23;2.43;;;;;;;16.94;80.13;101863.94;5026993;28;20206;-73
2023/10/06 09:27:21;;;;;;;3.67;2.60;;;;;;;17.01;77.70;101864.91;5045861;28;20217;-74
2023/10/06 09:29:47;;;;;;;5.10;2.77;;;;;;;17.07;76.72;101858.22;5028861;28;21218;-73
2023/10/06 09:32:21;;;;;;;5.97;2.87;;;;;;;17.14;76.10;101857.66;5026705;28;20748;-73
2023/10/06 09:34:53;;;;;;;6.17;3.13;;;;;;;17.19;76.04;101858.19;5028269;28;20203;-71
2023/10/06 09:37:20;;;;;;;4.67;2.70;;;;;;;17.20;73.39;101858.97;5045024;28;20211;-72
2023/10/06 09:39:56;;;;;;;6.30;3.07;;;;;;;17.24;74.20;101862.53;5027640;28;20206;-73
2023/10/06 09:42:27;;;;;;;3.43;2.77;;;;;;;17.28;75.84;101858.84;5027024;28;21110;-74
2023/10/06 09:45:06;;;;;;;4.67;2.70;;;;;;;17.34;74.59;101864.72;5028649;28;20214;-72
2023/10/06 09:47:37;;;;;;;3.93;2.60;;;;;;;17.38;74.53;101866.41;5027099;28;20207;-74
2023/10/06 09:50:04;;;;;;;6.37;2.57;;;;;;;17.39;72.65;101869.84;5028288;28;21071;-71
2023/10/06 09:52:34;;;;;;;5.00;2.60;;;;;;;17.39;72.65;101861.84;5023686;28;20222;-72
2023/10/06 09:55:04;;;;;;;6.00;2.57;;;;;;;17.42;73.61;101871.81;5027909;28;20238;-72
2023/10/06 09:57:32;;;;;;;4.87;2.40;;;;;;;17.40;75.35;101866.84;5025597;28;20837;-74
2023/10/06 10:00:01;;;;;;;2.80;2.40;;;;;;;17.43;73.32;101868.06;5029397;28;20209;-72
2023/10/06 10:02:30;;;;;;;4.50;2.50;;;;;;;17.44;73.81;101862.38;5024372;28;20233;-74
2023/10/06 10:05:01;;;;;;;4.37;2.30;;;;;;;17.42;69.69;101853.91;5027529;28;21714;-72
2023/10/06 10:07:36;;;;;;;3.23;2.47;;;;;;;17.40;70.62;101858.84;5028127;28;20209;-73
2023/10/06 10:10:05;;;;;;;4.43;2.77;;;;;;;17.43;70.93;101838.69;5028045;28;20207;-72
2023/10/06 10:12:54;;;;;;;3.77;2.73;;;;;;;17.47;69.91;101826.97;5030400;28;20246;-72
2023/10/06 10:15:37;;;;;;;4.90;2.93;;;;;;;17.59;71.43;101829.56;5030554;28;20689;-73
2023/10/06 10:18:11;;;;;;;2.70;2.40;;;;;;;17.72;71.28;101831.06;5030485;28;20209;-73
2023/10/06 10:20:40;;;;;;;2.83;2.20;;;;;;;17.83;71.77;101831.34;5027532;28;20979;-71
2023/10/06 10:23:07;;;;;;;5.10;2.73;;;;;;;17.93;69.38;101825.47;5028485;28;20219;-71
2023/10/06 10:25:36;;;;;;;2.90;2.10;;;;;;;18.01;71.80;101822.63;5029870;28;20298;-73
2023/10/06 10:28:13;;;;;;;3.10;2.10;;;;;;;18.10;69.50;101809.09;5030476;28;20325;-73
2023/10/06 10:30:51;;;;;;;4.33;2.40;;;;;;;18.15;69.48;101792.78;5028164;28;20209;-73
2023/10/06 10:33:24;;;;;;;3.67;2.37;;;;;;;18.20;71.30;101787.97;5044978;28;20325;-74
2023/10/06 10:36:23;;;;;;;3.27;2.03;;;;;;;18.23;67.75;101784.63;5030865;28;20372;-72
2023/10/06 10:39:09;;;;;;;5.57;2.70;;;;;;;18.35;67.57;101783.75;5028439;28;20199;-75
2023/10/06 10:41:37;;;;;;;4.30;2.20;;;;;;;18.45;67.31;101773.28;5028257;28;20207;-74
2023/10/06 10:44:05;;;;;;;4.33;2.20;;;;;;;18.53;68.81;101777.66;5031094;28;20202;-72
2023/10/06 10:46:33;;;;;;;4.13;2.13;;;;;;;18.58;65.97;101774.69;5027425;28;20631;-74
2023/10/06 10:49:01;;;;;;;3.10;1.93;;;;;;;18.65;65.74;101764.19;5029323;28;21499;-74
2023/10/06 10:51:33;;;;;;;7.13;2.07;;;;;;;18.71;66.60;101761.97;5027550;28;20203;-72
2023/10/06 10:54:00;;;;;;;3.43;1.83;;;;;;;18.78;64.58;101772.84;5029359;28;20215;-72
2023/10/06 10:56:36;;;;;;;1.90;1.70;;;;;;;18.84;63.77;101774.13;5027922;28;20407;-74
2023/10/06 10:59:03;;;;;;;2.37;1.90;;;;;;;18.89;65.39;101755.09;5030070;28;20708;-71
2023/10/06 11:01:32;;;;;;;1.93;1.50;;;;;;;18.96;67.20;101752.56;5028034;28;20215;-72
2023/10/06 11:04:21;;;;;;;3.33;1.97;;;;;;;19.05;62.78;101761.16;5027205;28;20203;-73
2023/10/06 11:06:50;;;;;;;4.33;2.17;;;;;;;19.10;61.54;101750.16;5026846;28;20209;-74
2023/10/06 11:09:30;;;;;;;3.67;1.50;;;;;;;19.16;63.30;101741.47;5027222;28;20203;-71
2023/10/06 11:11:58;;;;;;;2.23;1.60;;;;;;;19.22;62.00;101732.06;5026772;28;20246;-72
2023/10/06 11:14:27;;;;;;;3.47;1.40;;;;;;;19.27;66.54;101726.41;5024782;28;20541;-73
2023/10/06 11:16:59;;;;;;;2.57;1.60;;;;;;;19.26;62.94;101719.50;5026799;28;20267;-72
2023/10/06 11:19:25;;;;;;;2.60;1.70;;;;;;;19.28;59.07;101714.56;5025405;28;21738;-74
2023/10/06 11:21:53;;;;;;;2.57;1.30;;;;;;;19.28;60.81;101714.56;5025220;28;20332;-71
2023/10/06 11:24:26;;;;;;;1.87;1.60;;;;;;;19.29;61.56;101708.06;5026878;28;20618;-72
2023/10/06 11:26:53;;;;;;;2.40;1.40;;;;;;;19.30;57.81;101704.25;5024908;28;20292;-73
2023/10/06 11:29:30;;;;;;;2.47;1.50;;;;;;;19.30;58.70;101703.50;5023649;28;20293;-72